createdAt,value
2022-08-14T00:04:56.971Z,17.30
2022-08-14T00:15:23.645Z,17.30
2022-08-14T00:20:41.155Z,17.00
2022-08-14T00:26:00.304Z,17.10
2022-08-14T00:31:09.625Z,17.00
2022-08-14T00:46:37.790Z,16.70
2022-08-14T01:06:52.063Z,16.40
2022-08-14T01:12:03.358Z,16.30
2022-08-14T01:17:05.405Z,16.20
2022-08-14T01:22:12.561Z,16.40
2022-08-14T01:27:19.813Z,16.40
2022-08-14T01:58:19.980Z,15.80
2022-08-14T02:03:30.873Z,15.90
2022-08-14T02:13:37.482Z,15.60
2022-08-14T02:23:42.942Z,15.40
2022-08-14T02:34:03.921Z,15.60
2022-08-14T02:39:20.702Z,15.60
2022-08-14T02:49:34.232Z,15.40
2022-08-14T02:54:36.512Z,15.30
2022-08-14T02:59:40.464Z,15.30
2022-08-14T03:30:37.144Z,14.70
2022-08-14T03:41:10.939Z,15.00
2022-08-14T03:51:37.836Z,15.00
2022-08-14T04:07:04.277Z,14.90
2022-08-14T04:38:35.890Z,14.60
2022-08-14T04:43:39.861Z,14.40
2022-08-14T04:53:53.805Z,14.30
2022-08-14T04:58:59.302Z,14.70
2022-08-14T05:30:07.156Z,14.90
2022-08-14T06:00:39.633Z,15.90
2022-08-14T06:30:55.962Z,17.10
2022-08-14T06:41:00.917Z,17.20
2022-08-14T06:46:04.246Z,15.40
2022-08-14T06:51:06.171Z,17.80
2022-08-14T06:56:07.989Z,18.20
2022-08-14T07:01:34.215Z,18.50
2022-08-14T07:06:46.709Z,18.90
2022-08-14T07:11:49.707Z,19.90
2022-08-14T07:16:51.489Z,19.90
2022-08-14T07:21:53.288Z,21.00
2022-08-14T07:31:57.373Z,21.20
2022-08-14T07:37:01.205Z,21.10
2022-08-14T07:42:03.360Z,20.50
2022-08-14T07:47:05.477Z,21.20
2022-08-14T07:52:08.239Z,21.30
2022-08-14T07:57:12.028Z,21.40
2022-08-14T08:02:18.446Z,21.30
2022-08-14T08:07:29.909Z,21.60
2022-08-14T08:12:34.582Z,21.70
2022-08-14T08:17:42.399Z,21.60
2022-08-14T08:23:00.591Z,21.90
2022-08-14T08:28:19.745Z,22.00
2022-08-14T08:33:32.221Z,22.00
2022-08-14T08:39:16.286Z,22.20
2022-08-14T08:44:17.003Z,22.40
2022-08-14T08:49:52.832Z,22.80
2022-08-14T09:00:25.216Z,22.50
2022-08-14T09:05:28.773Z,22.50
2022-08-14T09:20:50.094Z,23.20
2022-08-14T09:26:00.958Z,23.00
2022-08-14T09:31:07.354Z,22.90
2022-08-14T09:36:30.957Z,23.50
2022-08-14T09:42:21.139Z,22.70
2022-08-14T09:48:03.869Z,23.20
2022-08-14T09:53:11.045Z,23.50
2022-08-14T09:58:22.778Z,23.30
2022-08-14T10:03:33.976Z,23.50
2022-08-14T10:09:04.181Z,23.40
2022-08-14T10:14:21.073Z,23.20
2022-08-14T10:19:31.353Z,23.90
2022-08-14T10:24:40.448Z,23.90
2022-08-14T10:29:49.391Z,23.70
2022-08-14T10:40:01.590Z,23.50
2022-08-14T10:45:04.946Z,23.50
2022-08-14T10:50:07.745Z,23.80
2022-08-14T10:55:19.346Z,23.90
2022-08-14T11:00:29.943Z,24.40
2022-08-14T11:05:41.870Z,24.40
2022-08-14T11:10:48.124Z,24.00
2022-08-14T11:20:56.518Z,24.20
2022-08-14T11:26:00.527Z,23.80
2022-08-14T11:31:05.136Z,24.60
2022-08-14T11:36:18.001Z,24.90
2022-08-14T11:41:20.635Z,25.80
2022-08-14T11:56:55.692Z,24.40
2022-08-14T12:07:01.263Z,26.00
2022-08-14T12:12:35.933Z,26.80
2022-08-14T12:17:49.710Z,26.60
2022-08-14T12:22:54.939Z,25.70
2022-08-14T12:28:01.475Z,25.20
2022-08-14T12:33:06.664Z,25.50
2022-08-14T12:38:19.368Z,26.20
2022-08-14T12:48:32.173Z,24.40
2022-08-14T12:53:38.490Z,24.50
2022-08-14T12:58:51.764Z,25.00
2022-08-14T13:04:23.722Z,24.10
2022-08-14T13:14:45.884Z,26.40
2022-08-14T13:19:49.093Z,24.90
2022-08-14T13:29:57.802Z,25.60
2022-08-14T13:35:01.275Z,24.20
2022-08-14T13:40:06.069Z,24.20
2022-08-14T13:50:15.730Z,25.00
2022-08-14T13:55:25.649Z,25.20
2022-08-14T14:00:35.891Z,23.40
2022-08-14T14:05:56.081Z,25.10
2022-08-14T14:16:06.311Z,24.60
2022-08-14T14:26:19.988Z,24.90
2022-08-14T14:31:30.229Z,25.30
2022-08-14T14:41:43.711Z,29.40
2022-08-14T14:56:56.646Z,24.70
2022-08-14T15:02:06.505Z,24.80
2022-08-14T15:32:56.899Z,23.70
2022-08-14T15:43:12.873Z,25.00
2022-08-14T15:53:25.253Z,24.30
2022-08-14T15:58:33.257Z,23.70
2022-08-14T16:03:42.310Z,23.40
2022-08-14T16:08:50.267Z,23.30
2022-08-14T16:13:59.436Z,23.20
2022-08-14T16:19:07.251Z,23.10
2022-08-14T16:24:27.093Z,23.00
2022-08-14T16:29:35.646Z,23.20
2022-08-14T16:34:44.711Z,23.90
2022-08-14T16:39:49.719Z,23.80
2022-08-14T16:44:58.155Z,23.20
2022-08-14T16:50:03.313Z,23.10
2022-08-14T16:55:08.524Z,24.10
2022-08-14T17:00:32.999Z,23.20
2022-08-14T17:05:47.003Z,23.30
2022-08-14T17:10:52.352Z,23.20
2022-08-14T17:16:24.743Z,23.00
2022-08-14T17:21:32.369Z,23.00
2022-08-14T17:26:44.019Z,23.00
2022-08-14T17:31:57.993Z,22.90
2022-08-14T17:37:03.730Z,22.90
2022-08-14T17:42:13.561Z,22.90
2022-08-14T17:47:17.865Z,22.90
2022-08-14T17:52:34.873Z,22.80
2022-08-14T17:57:40.916Z,22.80
2022-08-14T18:02:50.339Z,22.70
2022-08-14T18:08:31.313Z,22.70
2022-08-14T18:13:16.398Z,22.70
2022-08-14T18:18:18.158Z,22.70
2022-08-14T18:23:21.539Z,22.70
2022-08-14T18:28:51.375Z,22.70
2022-08-14T18:34:11.760Z,22.90
2022-08-14T18:39:25.443Z,22.80
2022-08-14T18:45:12.960Z,22.70
2022-08-14T18:50:27.752Z,22.90
2022-08-14T18:55:32.635Z,22.80
2022-08-14T19:00:40.382Z,23.00
2022-08-14T19:05:47.484Z,22.90
2022-08-14T19:10:52.411Z,23.50
2022-08-14T19:16:13.890Z,23.70
2022-08-14T19:21:26.314Z,23.50
2022-08-14T19:26:35.578Z,23.50
2022-08-14T19:31:42.662Z,23.30
2022-08-14T19:37:08.802Z,23.40
2022-08-14T19:42:14.876Z,23.30
2022-08-14T19:47:38.672Z,22.80
2022-08-14T19:52:43.183Z,22.60
2022-08-14T19:57:58.790Z,22.60
2022-08-14T20:03:10.162Z,22.70
2022-08-14T20:10:59.186Z,22.40
2022-08-14T20:13:38.685Z,22.40
2022-08-14T20:18:51.796Z,22.10
2022-08-14T20:24:31.017Z,22.30
2022-08-14T20:29:38.872Z,22.00
2022-08-14T20:34:51.235Z,22.00
2022-08-14T20:39:55.445Z,22.20
2022-08-14T20:45:23.800Z,22.00
2022-08-14T20:50:29.552Z,22.10
2022-08-14T20:55:37.209Z,22.20
2022-08-14T21:00:52.468Z,21.80
2022-08-14T21:06:01.368Z,22.00
2022-08-14T21:11:21.957Z,21.90
2022-08-14T21:16:32.947Z,21.90
2022-08-14T21:21:41.732Z,21.70
2022-08-14T21:26:52.324Z,21.60
2022-08-14T21:32:20.494Z,21.40
2022-08-14T21:37:23.568Z,21.40
2022-08-14T21:42:28.075Z,21.60
2022-08-14T21:52:50.239Z,21.30
2022-08-14T21:58:46.132Z,21.10
2022-08-14T22:03:24.173Z,21.40
2022-08-14T22:13:32.387Z,21.30
2022-08-14T22:18:34.369Z,21.50
2022-08-14T22:23:38.305Z,21.40
2022-08-14T22:28:44.944Z,21.00
2022-08-14T22:33:49.839Z,21.10
2022-08-14T22:38:51.769Z,21.20
2022-08-14T22:44:03.855Z,21.20
2022-08-14T22:54:52.502Z,21.00
2022-08-14T22:59:51.921Z,21.00
2022-08-14T23:04:57.993Z,21.00
2022-08-14T23:10:32.492Z,21.10
2022-08-14T23:15:24.656Z,21.20
2022-08-14T23:25:57.793Z,17.20
2022-08-14T23:31:05.702Z,21.10
2022-08-14T23:36:31.763Z,21.10
2022-08-14T23:41:45.991Z,21.10
2022-08-14T23:46:56.984Z,21.40
2022-08-14T23:52:56.203Z,21.30
2022-08-14T23:57:22.729Z,21.30
